Enter the Airport ICAO Code

Search by Airport or City

Current Weather

LEMG | Málaga Airport

Málaga, Andalusia, Spain

Last Update 19 Minutes Ago

Sky with Few Clouds

Temperature of 30 ºC

Moderate Winds from SouthEast

Temperature

30 ºC

Dew Point Temperature

18 ºC

Relative Humidity

48.83 %

Wind Direction

SouthEast (140º, Ranging from 110º to 180º)

Wind Velocity

24 km/h (13 kt)

Gusts

None

Visibility

Greater than 10 Kilometers

Sea Level Pressure

1013 hPa (Hectopascals)

Layers of Clouds

5% to 30% of Sky Covered from 1219 mts (4000 ft) Above Ground Level.

METAR LEMG 121400Z 14013KT 110V180 9999 FEW040 30/18 Q1013 NOSIG

Weather Forecast

LEMG | Málaga Airport

Málaga, Andalusia, Spain

Forecast valid for the next 22 Hours

From now on it is expected:

Partly Cloudy Sky

Light to Moderate Winds from SouthEast

In 3 to 6 hours it is expected the begining of:

Light Winds from Variable Directions

In 8 hours it is expected the begining of 8 hours with intermittent periods of:

Light to Moderate Winds from West

In 18 to 20 hours it is expected the begining of:

Light to Moderate Winds from SouthEast

Maximum Temperature

31 ºC in -1 Hours

Minimum Temperature

22 ºC in 14 Hours

TAF LEMG 121100Z 1212/1312 15009KT 9999 SCT020 TX31/1213Z TN22/1304Z BECMG 1217/1220 VRB02KT TEMPO 1222/1306 28008KT BECMG 1308/1310 14009KT